Time;durP1;ratioP1;P1;durP2;ratioP2;P2;SDS_P1;SDS_P2;PMS_P1;PMS_P2;Temp;Humidity;BMP_temperature;BMP_pressure;BME280_temperature;BME280_humidity;BME280_pressure;Samples;Min_cycle;Max_cycle;Signal;HPM_P1;HPM_P2
2021/12/10 00:00:21;;;;;;;23.20;14.67;;;;;;;-15.58;71.23;102942.63;5115663;28;20043;-62
2021/12/10 00:02:48;;;;;;;22.00;16.25;;;;;;;-15.63;70.92;102941.56;5115609;28;20035;-62
2021/12/10 00:05:18;;;;;;;24.40;14.32;;;;;;;-15.61;70.89;102942.50;5097335;28;20037;-61
2021/12/10 00:07:46;;;;;;;22.42;16.27;;;;;;;-15.66;71.54;102928.69;5097139;28;20036;-63
2021/12/10 00:10:16;;;;;;;23.98;14.88;;;;;;;-15.72;71.52;102939.53;5096791;28;20034;-63
2021/12/10 00:12:49;;;;;;;21.65;14.65;;;;;;;-15.81;71.08;102928.16;5115201;28;20059;-62
2021/12/10 00:15:17;;;;;;;20.73;13.20;;;;;;;-15.81;71.19;102948.56;5115239;28;20036;-62
2021/12/10 00:17:43;;;;;;;23.80;15.25;;;;;;;-16.03;71.55;102937.56;5115328;28;20054;-63
2021/12/10 00:20:11;;;;;;;31.48;16.48;;;;;;;-16.21;71.18;102931.75;5114702;28;20482;-63
2021/12/10 00:22:45;;;;;;;24.17;17.35;;;;;;;-16.33;71.87;102938.94;5114792;28;20051;-61
2021/12/10 00:25:19;;;;;;;23.13;14.98;;;;;;;-16.40;71.83;102920.00;5115347;28;20040;-62
2021/12/10 00:27:50;;;;;;;25.98;15.63;;;;;;;-16.35;72.02;102922.72;5114994;28;20036;-63
2021/12/10 00:30:23;;;;;;;24.50;17.58;;;;;;;-16.42;72.13;102920.75;5114735;28;20032;-62
2021/12/10 00:33:03;;;;;;;23.75;15.57;;;;;;;-16.63;72.00;102890.19;5114838;28;20152;-62
2021/12/10 00:35:32;;;;;;;24.58;15.77;;;;;;;-16.40;72.02;102935.28;5096751;28;20162;-63
2021/12/10 00:37:58;;;;;;;25.20;14.55;;;;;;;-16.43;72.16;102930.06;5114748;28;20606;-62
2021/12/10 00:40:26;;;;;;;22.13;13.82;;;;;;;-16.38;72.33;102933.66;5096546;28;20127;-63
2021/12/10 00:42:52;;;;;;;22.83;14.88;;;;;;;-16.57;71.51;102907.38;5114953;28;20049;-61
2021/12/10 00:45:19;;;;;;;19.38;12.43;;;;;;;-16.47;72.56;102937.56;5114543;28;20070;-63
2021/12/10 00:47:48;;;;;;;24.00;12.88;;;;;;;-16.48;72.64;102925.59;5114448;28;20115;-62
2021/12/10 00:50:19;;;;;;;24.95;13.15;;;;;;;-16.51;72.66;102915.25;5114439;28;20046;-62
2021/12/10 00:52:45;;;;;;;24.98;14.27;;;;;;;-16.83;73.00;102878.34;5114391;28;20036;-64
2021/12/10 00:55:12;;;;;;;22.70;14.00;;;;;;;-16.51;72.95;102930.56;5114369;28;20034;-62
2021/12/10 00:57:37;;;;;;;20.92;14.30;;;;;;;-16.46;73.38;102929.97;5095941;28;20023;-62
2021/12/10 01:00:28;;;;;;;21.43;12.13;;;;;;;-16.44;72.65;102927.47;5114177;28;20388;-66
2021/12/10 01:03:17;;;;;;;33.83;18.88;;;;;;;-16.70;73.13;102883.13;5096030;28;19917;-64
2021/12/10 01:05:47;;;;;;;19.13;12.95;;;;;;;-16.31;73.18;102925.44;5095879;28;20512;-63
2021/12/10 01:08:13;;;;;;;19.02;12.57;;;;;;;-16.30;72.58;102921.19;5113826;28;20417;-63
2021/12/10 01:10:43;;;;;;;25.63;13.67;;;;;;;-16.35;73.24;102915.06;5113808;28;20031;-62
2021/12/10 01:13:15;;;;;;;20.08;12.77;;;;;;;-16.38;72.51;102907.28;5114249;28;20356;-62
2021/12/10 01:15:53;;;;;;;20.70;13.27;;;;;;;-16.32;72.96;102912.63;5095882;28;20036;-62
2021/12/10 01:24:17;;;;;;;21.80;13.63;;;;;;;-16.21;72.81;102921.53;5095621;28;20035;-62
2021/12/10 01:29:21;;;;;;;19.98;15.15;;;;;;;-16.29;72.62;102898.28;5113880;28;20035;-62
2021/12/10 01:31:47;;;;;;;20.88;13.27;;;;;;;-16.16;73.10;102917.50;5113851;28;20067;-63
2021/12/10 01:34:14;;;;;;;22.42;14.15;;;;;;;-16.20;73.07;102924.97;5113861;28;20100;-62
2021/12/10 01:36:40;;;;;;;23.23;13.52;;;;;;;-16.41;73.26;102897.84;5113587;28;20042;-63
2021/12/10 01:39:12;;;;;;;22.30;13.55;;;;;;;-16.53;73.30;102901.59;5113789;28;20073;-62
2021/12/10 01:41:40;;;;;;;23.27;13.77;;;;;;;-16.52;73.34;102904.19;5113481;28;20035;-63
2021/12/10 01:44:15;;;;;;;23.00;13.30;;;;;;;-16.67;74.10;102893.44;5113665;28;20491;-62
2021/12/10 01:46:44;;;;;;;21.35;13.90;;;;;;;-16.52;73.62;102913.53;5113671;28;20118;-62
2021/12/10 01:49:12;;;;;;;19.57;13.83;;;;;;;-16.55;73.88;102895.56;5113516;28;20081;-63
2021/12/10 01:51:41;;;;;;;25.30;13.15;;;;;;;-16.42;73.56;102896.09;5113367;28;20054;-62
2021/12/10 01:54:13;;;;;;;18.70;12.93;;;;;;;-16.34;73.77;102904.03;5113249;28;20035;-62
2021/12/10 01:56:40;;;;;;;23.63;14.25;;;;;;;-16.34;73.75;102904.03;5113609;28;20048;-61
2021/12/10 01:59:09;;;;;;;22.92;15.38;;;;;;;-16.46;73.42;102889.16;5113848;28;20032;-62
2021/12/10 02:01:41;;;;;;;22.65;12.98;;;;;;;-16.39;72.68;102895.34;5113753;28;20046;-61
2021/12/10 02:04:10;;;;;;;17.20;12.13;;;;;;;-16.42;72.50;102891.00;5094939;28;20035;-63
2021/12/10 02:06:37;;;;;;;20.85;13.85;;;;;;;-16.35;72.42;102907.41;5112899;28;20031;-64
2021/12/10 02:09:04;;;;;;;16.85;12.32;;;;;;;-16.49;71.71;102893.25;5113313;28;20031;-62
2021/12/10 02:11:30;;;;;;;18.88;10.88;;;;;;;-16.54;71.83;102912.59;5112951;28;20032;-62
2021/12/10 02:13:56;;;;;;;17.40;13.25;;;;;;;-16.83;72.28;102875.81;5111971;28;20050;-62
2021/12/10 02:16:22;;;;;;;30.60;14.87;;;;;;;-16.80;72.65;102898.84;5112830;28;20042;-62
2021/12/10 02:18:49;;;;;;;12.10;9.25;;;;;;;-16.83;72.21;102888.53;5113137;28;20131;-61
2021/12/10 02:21:21;;;;;;;16.98;9.13;;;;;;;-16.79;71.78;102898.91;5112881;28;20055;-63
2021/12/10 02:23:57;;;;;;;21.23;13.30;;;;;;;-16.89;71.77;102888.31;5112813;28;20514;-63
2021/12/10 02:26:32;;;;;;;17.00;10.23;;;;;;;-16.79;72.01;102890.41;5112746;28;20031;-61
2021/12/10 02:28:58;;;;;;;15.77;10.80;;;;;;;-16.80;71.39;102897.19;5112681;28;20530;-62
2021/12/10 02:31:26;;;;;;;14.53;10.93;;;;;;;-16.84;71.50;102885.13;5112732;28;20122;-64
2021/12/10 02:33:52;;;;;;;14.75;10.02;;;;;;;-16.81;71.55;102905.63;5112399;28;20053;-62
2021/12/10 02:36:43;;;;;;;18.23;11.20;;;;;;;-16.94;71.49;102883.03;5112882;28;20070;-64
2021/12/10 02:39:17;;;;;;;16.83;11.38;;;;;;;-16.85;70.85;102905.47;5112596;28;20043;-62
2021/12/10 02:41:43;;;;;;;12.30;9.93;;;;;;;-16.96;71.39;102899.94;5112415;28;20042;-61
2021/12/10 02:44:12;;;;;;;17.20;12.82;;;;;;;-16.97;71.14;102914.38;5112122;28;20039;-63
2021/12/10 02:46:38;;;;;;;15.27;10.43;;;;;;;-17.04;71.52;102903.88;5112412;28;20118;-63
2021/12/10 02:49:06;;;;;;;17.55;11.88;;;;;;;-16.99;72.06;102899.81;5112586;28;20043;-64
2021/12/10 02:51:32;;;;;;;16.90;11.75;;;;;;;-16.88;71.83;102923.19;5112380;28;20461;-61
2021/12/10 02:53:59;;;;;;;15.20;10.15;;;;;;;-16.80;71.80;102921.81;5094128;28;20035;-61
2021/12/10 02:56:25;;;;;;;20.63;10.80;;;;;;;-16.79;70.88;102914.22;5112193;28;20126;-63
2021/12/10 02:58:54;;;;;;;17.37;11.10;;;;;;;-16.90;71.38;102910.38;5112055;28;20067;-63
2021/12/10 03:01:22;;;;;;;20.33;13.15;;;;;;;-16.87;71.49;102930.88;5112382;28;20036;-62
2021/12/10 03:03:48;;;;;;;17.60;9.50;;;;;;;-16.89;71.38;102916.34;5094127;28;20065;-62
2021/12/10 03:06:16;;;;;;;16.80;10.73;;;;;;;-16.95;71.10;102906.78;5112208;28;20156;-62
2021/12/10 03:08:49;;;;;;;13.07;9.20;;;;;;;-16.83;70.33;102917.44;5112140;28;20030;-62
2021/12/10 03:11:19;;;;;;;15.15;11.82;;;;;;;-16.74;70.12;102922.94;5112171;28;20044;-62
2021/12/10 03:13:44;;;;;;;14.10;10.35;;;;;;;-16.70;70.51;102917.16;5112053;28;20383;-62
2021/12/10 03:16:11;;;;;;;16.23;10.30;;;;;;;-16.74;69.43;102906.78;5094130;28;20146;-62
2021/12/10 03:18:37;;;;;;;14.63;9.52;;;;;;;-16.74;69.85;102917.84;5112316;28;20027;-62
2021/12/10 03:21:09;;;;;;;16.90;12.77;;;;;;;-17.04;69.97;102886.91;5111863;28;20082;-62
2021/12/10 03:23:37;;;;;;;15.00;10.20;;;;;;;-16.92;69.88;102917.09;5112122;28;20132;-63
2021/12/10 03:26:03;;;;;;;16.92;10.20;;;;;;;-16.97;70.23;102914.38;5114191;28;20127;-62
2021/12/10 03:28:29;;;;;;;17.08;10.27;;;;;;;-17.02;69.97;102907.34;5116103;28;20027;-62
2021/12/10 03:30:55;;;;;;;15.47;11.57;;;;;;;-17.00;70.73;102918.47;5115993;28;20032;-63
2021/12/10 03:33:21;;;;;;;16.63;10.83;;;;;;;-17.14;70.76;102894.09;5115906;28;20543;-63
2021/12/10 03:35:48;;;;;;;14.87;10.77;;;;;;;-17.03;70.75;102905.59;5115756;28;20477;-64
2021/12/10 03:38:21;;;;;;;15.80;11.50;;;;;;;-17.15;70.78;102882.16;5115784;28;20035;-65
2021/12/10 03:40:48;;;;;;;12.90;9.77;;;;;;;-17.02;70.88;102905.66;5115734;28;20088;-62
2021/12/10 03:43:16;;;;;;;16.48;10.48;;;;;;;-17.08;70.66;102884.13;5115694;28;20040;-63
2021/12/10 03:45:48;;;;;;;16.20;9.60;;;;;;;-17.08;70.64;102891.78;5115530;28;20127;-62
2021/12/10 03:48:18;;;;;;;20.08;11.32;;;;;;;-17.23;70.45;102872.53;5097951;28;20027;-61
2021/12/10 03:50:46;;;;;;;18.33;11.75;;;;;;;-17.06;71.15;102905.44;5115486;28;20089;-63
2021/12/10 03:53:12;;;;;;;17.73;10.50;;;;;;;-17.15;70.90;102898.31;5097515;28;20097;-63
2021/12/10 03:55:39;;;;;;;19.42;13.50;;;;;;;-17.09;70.69;102912.97;5115580;28;20039;-61
2021/12/10 03:58:05;;;;;;;17.27;11.52;;;;;;;-17.42;70.84;102844.56;5115537;28;20554;-62
2021/12/10 04:00:36;;;;;;;13.18;10.77;;;;;;;-17.12;69.98;102902.66;5115330;28;20402;-62
2021/12/10 04:03:03;;;;;;;15.27;10.77;;;;;;;-17.13;70.18;102904.34;5097006;28;20168;-63
2021/12/10 04:05:28;;;;;;;20.88;12.10;;;;;;;-17.11;69.95;102920.56;5114993;28;20127;-62
2021/12/10 04:07:54;;;;;;;17.73;12.97;;;;;;;-17.23;70.30;102899.69;5115290;28;20621;-64
2021/12/10 04:10:22;;;;;;;15.95;11.38;;;;;;;-17.13;70.90;102911.09;5115368;28;20590;-63
2021/12/10 04:12:48;;;;;;;18.20;11.38;;;;;;;-16.98;70.37;102925.38;5115270;28;20051;-63
2021/12/10 04:15:17;;;;;;;22.40;13.53;;;;;;;-17.15;70.19;102912.72;5115172;28;20558;-62
2021/12/10 04:17:44;;;;;;;20.55;12.30;;;;;;;-17.19;70.56;102921.91;5096830;28;20026;-65
2021/12/10 04:20:10;;;;;;;18.77;10.93;;;;;;;-17.38;70.60;102899.03;5096603;28;20478;-63
2021/12/10 04:22:37;;;;;;;20.92;10.85;;;;;;;-17.32;71.01;102905.28;5114035;28;20048;-65
2021/12/10 04:25:07;;;;;;;18.63;11.45;;;;;;;-17.11;70.61;102919.69;5113037;28;20472;-59
2021/12/10 04:27:33;;;;;;;18.23;11.18;;;;;;;-17.42;69.83;102854.75;5113445;28;20031;-64
2021/12/10 04:29:59;;;;;;;21.35;12.40;;;;;;;-17.11;70.03;102912.03;5113137;28;20498;-61
2021/12/10 04:32:26;;;;;;;18.90;10.40;;;;;;;-17.14;69.53;102909.38;5112197;28;20040;-65
2021/12/10 04:34:53;;;;;;;25.10;12.30;;;;;;;-17.14;69.62;102911.91;5112743;28;20040;-64
2021/12/10 04:37:19;;;;;;;18.15;13.05;;;;;;;-17.12;70.36;102913.72;5093926;28;20104;-65
2021/12/10 04:40:13;;;;;;;18.00;11.77;;;;;;;-17.10;69.95;102909.56;5115224;28;20505;-63
2021/12/10 04:42:39;;;;;;;20.23;10.98;;;;;;;-17.12;70.10;102913.72;5116049;28;20049;-65
2021/12/10 04:45:06;;;;;;;16.77;11.90;;;;;;;-17.10;70.39;102913.78;5115012;28;20134;-64
2021/12/10 04:47:33;;;;;;;13.38;10.40;;;;;;;-17.14;70.32;102905.16;5114887;28;20486;-65
2021/12/10 04:50:00;;;;;;;24.58;12.32;;;;;;;-17.07;70.52;102917.31;5114471;28;20043;-66
2021/12/10 04:52:26;;;;;;;19.65;9.73;;;;;;;-17.07;70.31;102916.44;5115713;28;20035;-62
2021/12/10 04:54:51;;;;;;;32.13;26.87;;;;;;;-16.96;70.89;102926.28;5116854;28;20051;-64
2021/12/10 04:57:17;;;;;;;17.87;11.30;;;;;;;-17.09;71.28;102893.47;5115547;28;20087;-63
2021/12/10 04:59:43;;;;;;;13.73;10.80;;;;;;;-16.85;70.65;102934.38;5115871;28;20032;-64
2021/12/10 05:02:13;;;;;;;27.20;14.45;;;;;;;-16.92;70.99;102912.00;5115951;28;20081;-66
2021/12/10 05:04:43;;;;;;;13.07;9.75;;;;;;;-16.97;70.71;102901.63;5116364;28;20140;-64
2021/12/10 05:07:21;;;;;;;16.05;10.23;;;;;;;-17.00;69.78;102913.38;5115528;28;20428;-64
2021/12/10 05:10:25;;;;;;;18.65;12.10;;;;;;;-16.95;69.37;102922.06;5087537;28;20046;-63
2021/12/10 05:13:08;;;;;;;18.70;11.88;;;;;;;-17.34;70.14;102866.13;5112935;28;20128;-65
2021/12/10 05:15:55;;;;;;;17.08;12.07;;;;;;;-17.08;70.34;102917.25;5094680;28;20036;-65
2021/12/10 05:18:56;;;;;;;15.18;10.50;;;;;;;-17.03;69.97;102919.22;5095058;28;20039;-65
2021/12/10 05:21:31;;;;;;;15.95;11.10;;;;;;;-17.03;69.82;102914.13;5090918;28;20458;-65
2021/12/10 05:24:01;;;;;;;20.75;12.95;;;;;;;-17.13;69.86;102900.91;5093250;28;20130;-66
2021/12/10 05:26:27;;;;;;;24.00;11.15;;;;;;;-17.06;70.20;102925.84;5092491;28;20044;-64
2021/12/10 05:28:54;;;;;;;20.65;14.55;;;;;;;-17.31;70.37;102886.63;5092073;28;20518;-65
2021/12/10 05:31:19;;;;;;;20.75;13.32;;;;;;;-17.15;71.26;102917.81;5093575;28;20038;-65
2021/12/10 05:33:45;;;;;;;20.93;12.93;;;;;;;-17.32;70.64;102900.19;5093642;28;20502;-63
2021/12/10 05:36:11;;;;;;;16.87;11.50;;;;;;;-17.26;70.75;102907.19;5093189;28;20044;-61
2021/12/10 05:38:36;;;;;;;22.63;11.70;;;;;;;-17.40;71.40;102883.69;5093521;28;20092;-70
2021/12/10 05:41:27;;;;;;;12.52;9.50;;;;;;;-17.37;70.60;102871.06;5092990;28;20147;-65
2021/12/10 05:43:53;;;;;;;12.20;8.73;;;;;;;-17.09;70.09;102918.94;5093117;28;20119;-66
2021/12/10 05:46:19;;;;;;;16.50;10.00;;;;;;;-17.10;70.52;102901.91;5091921;28;20036;-65
2021/12/10 05:48:45;;;;;;;17.33;8.20;;;;;;;-17.19;70.08;102895.59;5092855;28;20122;-67
2021/12/10 05:51:11;;;;;;;15.68;9.65;;;;;;;-17.12;70.44;102905.22;5093118;28;20467;-67
2021/12/10 05:53:37;;;;;;;16.55;12.15;;;;;;;-17.23;69.90;102899.69;5091883;28;20406;-69
2021/12/10 05:56:04;;;;;;;16.48;11.57;;;;;;;-17.29;69.83;102907.94;5094042;28;20445;-70
2021/12/10 05:58:30;;;;;;;10.98;9.65;;;;;;;-17.47;70.31;102889.34;5093856;28;20114;-67
2021/12/10 06:01:03;;;;;;;16.53;11.87;;;;;;;-17.42;70.61;102895.47;5093874;28;20127;-66
2021/12/10 06:03:33;;;;;;;17.55;10.02;;;;;;;-17.31;71.04;102898.50;5093153;28;20266;-67
2021/12/10 06:05:59;;;;;;;17.40;10.98;;;;;;;-17.41;70.75;102869.22;5075307;28;20525;-66
2021/12/10 06:08:25;;;;;;;16.87;9.90;;;;;;;-17.32;71.40;102864.53;5090476;28;20063;-67
2021/12/10 06:10:54;;;;;;;22.90;11.77;;;;;;;-17.16;70.84;102895.69;5092564;28;20027;-70
2021/12/10 06:13:20;;;;;;;25.85;10.48;;;;;;;-17.17;70.69;102884.66;5092705;28;20050;-70
2021/12/10 06:15:45;;;;;;;22.53;9.77;;;;;;;-17.15;71.38;102882.16;5092982;28;20024;-71
2021/12/10 06:18:12;;;;;;;21.73;10.03;;;;;;;-17.09;70.82;102892.59;5093288;28;20285;-63
2021/12/10 06:20:42;;;;;;;16.10;9.13;;;;;;;-17.12;70.58;102874.63;5101773;28;20070;-63
2021/12/10 06:23:08;;;;;;;12.52;11.15;;;;;;;-17.01;70.60;102891.25;5112145;28;20063;-64
2021/12/10 06:25:35;;;;;;;14.38;9.73;;;;;;;-17.23;69.76;102854.69;5094496;28;20051;-64
2021/12/10 06:28:02;;;;;;;23.58;10.80;;;;;;;-17.21;70.22;102872.59;5112565;28;20118;-64
2021/12/10 06:30:31;;;;;;;16.60;8.13;;;;;;;-17.25;70.30;102866.50;5112413;28;20043;-64
2021/12/10 06:32:59;;;;;;;11.77;9.45;;;;;;;-17.11;70.32;102868.72;5112728;28;20043;-64
2021/12/10 06:35:28;;;;;;;12.32;8.73;;;;;;;-17.05;70.28;102879.19;5112581;28;20051;-64
2021/12/10 06:37:56;;;;;;;13.93;9.10;;;;;;;-16.95;69.47;102882.16;5112766;28;20031;-63
2021/12/10 06:40:24;;;;;;;12.82;8.90;;;;;;;-17.01;68.86;102873.41;5113471;28;20498;-63
2021/12/10 06:42:51;;;;;;;10.95;8.35;;;;;;;-17.27;69.32;102822.28;5113011;28;20048;-63
2021/12/10 06:45:20;;;;;;;16.13;9.82;;;;;;;-16.90;69.28;102869.59;5112622;28;20329;-62
2021/12/10 06:47:50;;;;;;;11.13;8.55;;;;;;;-16.93;69.24;102833.81;5112329;28;20402;-61
2021/12/10 06:50:21;;;;;;;20.38;12.30;;;;;;;-16.82;68.85;102854.59;5112249;28;20060;-63
2021/12/10 06:52:48;;;;;;;18.23;9.68;;;;;;;-16.84;69.24;102863.88;5112616;28;20035;-65
2021/12/10 06:55:15;;;;;;;20.70;10.90;;;;;;;-16.85;69.14;102872.31;5112300;28;20023;-62
2021/12/10 06:57:41;;;;;;;15.73;11.80;;;;;;;-16.94;69.59;102863.50;5112263;28;20040;-64
2021/12/10 07:00:23;;;;;;;16.87;12.10;;;;;;;-16.90;70.14;102864.50;5113078;28;20035;-63
2021/12/10 07:02:49;;;;;;;20.35;14.00;;;;;;;-16.99;69.84;102859.91;5116546;28;20394;-62
2021/12/10 07:05:15;;;;;;;15.38;12.70;;;;;;;-17.03;69.86;102863.16;5116666;28;20046;-62
2021/12/10 07:07:42;;;;;;;19.42;12.85;;;;;;;-17.02;71.33;102862.34;5116521;28;20027;-62
2021/12/10 07:10:09;;;;;;;11.38;10.15;;;;;;;-17.06;70.73;102832.44;5116429;28;20039;-63
2021/12/10 07:12:36;;;;;;;15.82;12.55;;;;;;;-16.86;70.75;102855.28;5116173;28;20444;-62
2021/12/10 07:15:04;;;;;;;15.25;10.27;;;;;;;-17.23;70.84;102791.03;5116144;28;20500;-62
2021/12/10 07:17:29;;;;;;;19.38;12.35;;;;;;;-16.76;71.05;102850.63;5116328;28;20055;-62
2021/12/10 07:20:00;;;;;;;19.30;10.47;;;;;;;-16.68;70.83;102835.63;5115973;28;20046;-64
2021/12/10 07:22:31;;;;;;;21.08;11.65;;;;;;;-16.63;71.40;102842.59;5116059;28;20051;-64
2021/12/10 07:24:57;;;;;;;15.95;9.93;;;;;;;-17.09;71.05;102757.56;5116261;28;20027;-63
2021/12/10 07:27:23;;;;;;;16.33;12.57;;;;;;;-16.49;71.53;102844.78;5115827;28;20402;-65
2021/12/10 07:29:49;;;;;;;17.53;12.80;;;;;;;-16.38;72.10;102840.97;5115823;28;20080;-69
2021/12/10 07:32:15;;;;;;;15.85;10.68;;;;;;;-16.25;70.87;102845.69;5116389;28;20038;-61
2021/12/10 07:34:41;;;;;;;28.45;14.95;;;;;;;-16.16;71.47;102846.06;5115878;28;20027;-58
2021/12/10 07:37:09;;;;;;;19.42;11.25;;;;;;;-16.09;71.37;102835.25;5115672;28;20035;-62
2021/12/10 07:39:35;;;;;;;30.30;15.75;;;;;;;-16.17;71.51;102806.06;5115783;28;20034;-63
2021/12/10 07:42:01;;;;;;;14.53;9.90;;;;;;;-15.84;70.47;102849.75;5115644;28;20044;-62
2021/12/10 07:44:27;;;;;;;14.32;11.60;;;;;;;-15.87;70.62;102842.00;5097601;28;20055;-61
2021/12/10 07:46:55;;;;;;;18.33;12.68;;;;;;;-15.94;70.75;102828.94;5115728;28;20122;-62
2021/12/10 07:49:28;;;;;;;14.15;10.23;;;;;;;-15.75;71.02;102847.53;5115923;28;20482;-61
2021/12/10 07:51:55;;;;;;;13.55;11.32;;;;;;;-15.73;71.18;102837.34;5115768;28;20036;-63
2021/12/10 07:54:22;;;;;;;12.85;10.48;;;;;;;-15.66;71.65;102836.75;5097184;28;20028;-63
2021/12/10 07:56:48;;;;;;;15.93;10.18;;;;;;;-15.74;71.53;102826.28;5115263;28;20036;-64
2021/12/10 07:59:14;;;;;;;14.07;9.90;;;;;;;-15.55;71.55;102839.66;5115669;28;20155;-62
2021/12/10 08:01:39;;;;;;;10.95;9.05;;;;;;;-15.64;71.68;102819.78;5115576;28;20340;-60
2021/12/10 08:04:06;;;;;;;13.40;8.53;;;;;;;-15.58;71.51;102809.81;5115441;28;20056;-68
2021/12/10 08:06:33;;;;;;;14.52;8.52;;;;;;;-15.45;71.59;102832.34;5115312;28;20028;-59
2021/12/10 08:09:00;;;;;;;11.93;7.90;;;;;;;-15.33;70.81;102826.75;5115636;28;20436;-66
2021/12/10 08:11:26;;;;;;;10.65;8.23;;;;;;;-15.38;71.01;102818.06;5115523;28;20031;-65
2021/12/10 08:13:52;;;;;;;8.60;7.80;;;;;;;-15.31;70.49;102826.84;5115318;28;20038;-64
2021/12/10 08:16:19;;;;;;;8.73;7.83;;;;;;;-15.39;70.89;102822.31;5115307;28;20032;-64
2021/12/10 08:18:45;;;;;;;14.88;9.70;;;;;;;-15.24;71.27;102836.44;5115087;28;20043;-65
2021/12/10 08:21:11;;;;;;;10.45;9.13;;;;;;;-15.19;70.47;102822.09;5114989;28;20059;-66
2021/12/10 08:23:38;;;;;;;10.95;9.27;;;;;;;-15.18;70.50;102821.28;5096795;28;20053;-65
2021/12/10 08:26:05;;;;;;;11.50;9.43;;;;;;;-15.20;70.76;102816.13;5079639;28;20039;-68
2021/12/10 08:28:33;;;;;;;11.43;8.18;;;;;;;-15.20;70.70;102807.59;5115221;28;20398;-69
2021/12/10 08:31:00;;;;;;;12.95;11.25;;;;;;;-15.22;70.94;102793.91;5115104;28;20067;-66
2021/12/10 08:33:26;;;;;;;17.48;10.15;;;;;;;-15.09;70.53;102821.56;5096962;28;20024;-66
2021/12/10 08:35:58;;;;;;;11.50;10.18;;;;;;;-15.12;70.29;102790.81;5114913;28;20028;-65
2021/12/10 08:38:26;;;;;;;12.90;8.57;;;;;;;-15.01;70.01;102817.59;5114966;28;20032;-63
2021/12/10 08:40:59;;;;;;;13.40;10.55;;;;;;;-15.01;70.38;102809.06;5114750;28;20043;-67
2021/12/10 08:43:29;;;;;;;11.07;8.48;;;;;;;-15.07;70.46;102791.81;5114870;28;20028;-64
2021/12/10 08:45:57;;;;;;;15.18;9.45;;;;;;;-14.97;70.11;102801.53;5114686;28;20494;-63
2021/12/10 08:48:27;;;;;;;17.60;10.15;;;;;;;-14.89;69.03;102807.72;5114648;28;20032;-63
2021/12/10 08:50:56;;;;;;;10.48;8.63;;;;;;;-14.91;70.10;102791.47;5114632;28;20070;-67
2021/12/10 08:53:21;;;;;;;12.90;9.33;;;;;;;-14.95;70.72;102781.13;5114751;28;20047;-66
2021/12/10 08:55:50;;;;;;;17.93;10.93;;;;;;;-14.79;70.21;102780.75;5114581;28;20261;-65
2021/12/10 08:58:18;;;;;;;12.25;9.60;;;;;;;-14.78;70.14;102778.22;5114451;28;20039;-64
2021/12/10 09:00:57;;;;;;;16.05;9.38;;;;;;;-14.74;70.15;102779.22;5115083;28;20039;-66
2021/12/10 09:03:23;;;;;;;12.48;9.98;;;;;;;-14.61;70.61;102785.53;5115167;28;20038;-67
2021/12/10 09:05:49;;;;;;;17.70;11.95;;;;;;;-14.53;70.01;102794.28;5096072;28;20163;-64
2021/12/10 09:08:16;;;;;;;13.70;11.07;;;;;;;-14.43;69.66;102807.44;5114732;28;20032;-64
2021/12/10 09:10:43;;;;;;;15.02;10.88;;;;;;;-14.42;69.52;102798.03;5114269;28;20031;-64
2021/12/10 09:13:14;;;;;;;14.07;8.25;;;;;;;-14.47;69.62;102786.78;5114170;28;20180;-64
2021/12/10 09:15:46;;;;;;;11.05;9.25;;;;;;;-14.38;69.55;102794.72;5114180;28;20191;-63
2021/12/10 09:18:14;;;;;;;10.23;8.52;;;;;;;-14.40;69.34;102789.56;5114209;28;20066;-65
2021/12/10 09:20:45;;;;;;;10.38;8.27;;;;;;;-14.24;69.55;102790.84;5114378;28;20052;-62
2021/12/10 09:23:18;;;;;;;15.63;10.48;;;;;;;-14.27;69.52;102777.09;5113972;28;20082;-65
2021/12/10 09:25:46;;;;;;;11.63;9.40;;;;;;;-14.28;69.55;102786.47;5114758;28;20083;-64
2021/12/10 09:28:12;;;;;;;10.57;8.77;;;;;;;-14.31;69.21;102771.03;5114671;28;20379;-68
2021/12/10 09:30:46;;;;;;;10.05;8.52;;;;;;;-14.27;69.86;102771.97;5114016;28;20036;-62
2021/12/10 09:33:12;;;;;;;9.02;8.13;;;;;;;-14.26;69.54;102774.59;5113899;28;20047;-64
2021/12/10 09:35:39;;;;;;;12.40;8.37;;;;;;;-14.09;69.54;102787.84;5114304;28;20098;-65
2021/12/10 09:38:05;;;;;;;13.70;8.77;;;;;;;-14.07;69.50;102775.09;5095312;28;20061;-64
2021/12/10 09:40:37;;;;;;;11.65;8.77;;;;;;;-14.14;69.23;102749.34;5094572;28;20589;-64
2021/12/10 09:43:08;;;;;;;9.88;8.85;;;;;;;-13.99;69.36;102753.13;5052417;28;20139;-63
2021/12/10 09:45:37;;;;;;;13.48;8.77;;;;;;;-13.93;69.34;102732.78;5071316;28;20130;-63
2021/12/10 09:48:07;;;;;;;10.80;9.70;;;;;;;-13.69;68.97;102753.03;5071269;28;20040;-65
2021/12/10 09:50:37;;;;;;;10.32;9.27;;;;;;;-13.64;68.69;102757.44;5071305;28;20032;-63
2021/12/10 09:53:03;;;;;;;17.35;10.18;;;;;;;-13.51;68.95;102743.25;5070467;28;20032;-62
2021/12/10 09:55:32;;;;;;;14.68;9.63;;;;;;;-13.53;68.75;102735.53;5053578;28;20068;-65
2021/12/10 09:57:59;;;;;;;10.25;7.85;;;;;;;-13.54;68.29;102738.91;5070616;28;20461;-65
2021/12/10 10:00:42;;;;;;;12.07;8.13;;;;;;;-13.44;68.84;102740.00;5070354;28;20522;-62
2021/12/10 10:03:22;;;;;;;9.18;8.27;;;;;;;-13.31;68.57;102736.00;5070383;28;20554;-64
2021/12/10 10:05:48;;;;;;;10.82;9.65;;;;;;;-13.21;68.82;102732.84;5070245;28;20109;-63
2021/12/10 10:08:18;;;;;;;11.50;8.83;;;;;;;-13.19;68.67;102731.19;5053528;28;20079;-59
2021/12/10 10:10:50;;;;;;;10.98;7.60;;;;;;;-13.11;68.10;102744.16;5070149;28;20223;-68
2021/12/10 10:13:19;;;;;;;9.57;7.88;;;;;;;-13.11;68.27;102739.88;5070301;28;20410;-76
2021/12/10 10:15:46;;;;;;;12.77;7.70;;;;;;;-12.99;68.52;102740.19;5070186;28;20036;-69
2021/12/10 10:18:15;;;;;;;11.70;7.65;;;;;;;-12.98;67.76;102729.09;5069810;28;20054;-70
2021/12/10 10:20:46;;;;;;;10.50;7.80;;;;;;;-12.89;67.80;102739.53;5053120;28;20057;-72
2021/12/10 10:23:13;;;;;;;13.07;8.90;;;;;;;-12.95;67.79;102731.72;5070550;28;20071;-73
2021/12/10 10:25:40;;;;;;;8.88;7.63;;;;;;;-12.93;67.75;102730.03;5053619;28;20056;-69
2021/12/10 10:28:10;;;;;;;28.48;10.45;;;;;;;-12.95;67.87;102736.84;5093867;28;20040;-76
2021/12/10 10:30:47;;;;;;;11.30;8.40;;;;;;;-13.01;68.22;102739.28;5094589;28;20031;-73
2021/12/10 10:33:13;;;;;;;9.13;7.47;;;;;;;-12.94;68.53;102751.41;5113040;28;20040;-69
2021/12/10 10:35:47;;;;;;;11.90;9.57;;;;;;;-13.11;68.33;102734.75;5112348;28;20106;-75
2021/12/10 10:38:16;;;;;;;9.65;8.05;;;;;;;-13.06;68.74;102743.41;5113663;28;20050;-74
2021/12/10 10:40:48;;;;;;;10.57;8.50;;;;;;;-13.02;68.95;102745.22;5113221;28;20038;-73
2021/12/10 10:43:14;;;;;;;10.20;8.32;;;;;;;-13.07;68.71;102728.84;5113712;28;20108;-71
2021/12/10 10:45:44;;;;;;;8.23;6.60;;;;;;;-12.92;68.53;102743.72;5094902;28;20036;-74
2021/12/10 10:48:12;;;;;;;10.20;8.95;;;;;;;-13.00;69.05;102741.00;5094919;28;20052;-70
2021/12/10 10:50:45;;;;;;;10.82;8.18;;;;;;;-12.97;69.04;102743.63;5112375;28;20387;-70
2021/12/10 10:53:16;;;;;;;12.90;9.23;;;;;;;-13.31;69.14;102685.63;5112878;28;20023;-75
2021/12/10 10:55:54;;;;;;;12.20;7.45;;;;;;;-13.00;68.55;102717.94;5094238;28;20077;-73
2021/12/10 10:58:23;;;;;;;11.45;7.57;;;;;;;-12.88;69.07;102725.00;5112781;28;20138;-70
2021/12/10 11:01:04;;;;;;;;;;;;;;;-12.85;68.87;102727.63;5094384;28;20085;-72
2021/12/10 11:03:37;;;;;;;9.35;7.55;;;;;;;-12.78;68.40;102720.94;5112458;28;19919;-72
2021/12/10 11:06:07;;;;;;;9.63;7.60;;;;;;;-12.83;68.66;102711.44;5112880;28;20043;-72
2021/12/10 11:08:45;;;;;;;13.85;7.90;;;;;;;-12.69;68.37;102713.44;5112208;28;20040;-74
2021/12/10 11:11:19;;;;;;;9.93;8.95;;;;;;;-12.53;67.73;102721.47;5113117;28;20046;-79
2021/12/10 11:14:03;;;;;;;10.18;7.90;;;;;;;-12.76;68.28;102697.03;5113046;28;20042;-63
2021/12/10 11:16:30;;;;;;;8.68;7.53;;;;;;;-12.60;67.73;102714.47;5093986;28;20089;-63
2021/12/10 11:19:02;;;;;;;9.07;7.40;;;;;;;-12.68;68.16;102704.91;5112494;28;20043;-71
2021/12/10 11:21:57;;;;;;;8.75;7.82;;;;;;;-12.79;67.99;102706.38;5112418;28;20533;-71